Terminal Aerodrome Forecast
Issued by NWS Northern Indiana

Home | Current Version | Previous Version | Text Only | Print | Product List | Glossary Off
Versions: 1 2 3 4 5 6 7 8 9 10 11 12 13 14 15 16

000
FTUS43 KIWX 170530
TAFFWA
TAF
KFWA 170530Z 1706/1806 16006KT P6SM -SHRA VCTS BKN035CB OVC070
     FM171400 20010KT P6SM VCSH OVC035
     FM171700 21013G20KT P6SM VCTS BKN040CB
     FM180100 24007KT P6SM SCT110=

USA.gov is the U.S. government's official web portal to all federal, state and local government web resources and services.